createdAt,value
2023-03-28T00:00:27.685Z,0.00
2023-03-28T00:01:26.655Z,0.00
2023-03-28T00:02:26.685Z,0.00
2023-03-28T00:03:26.731Z,0.00
2023-03-28T00:04:26.624Z,0.00
2023-03-28T00:05:26.649Z,0.00
2023-03-28T00:06:26.645Z,0.00
2023-03-28T00:07:26.619Z,0.00
2023-03-28T00:08:26.584Z,0.00
2023-03-28T00:09:26.562Z,0.00
2023-03-28T00:10:26.550Z,0.00
2023-03-28T00:11:26.558Z,0.00
2023-03-28T00:12:26.557Z,0.00
2023-03-28T00:13:26.515Z,0.00
2023-03-28T00:14:26.547Z,0.00
2023-03-28T00:15:26.497Z,0.00
2023-03-28T00:16:26.550Z,0.00
2023-03-28T00:17:26.517Z,0.00
2023-03-28T00:18:26.469Z,0.00
2023-03-28T00:19:26.567Z,0.00
2023-03-28T00:20:26.442Z,0.00
2023-03-28T00:21:26.441Z,0.00
2023-03-28T00:22:26.436Z,0.00
2023-03-28T00:23:26.436Z,0.00
2023-03-28T00:24:26.457Z,0.00
2023-03-28T00:25:26.395Z,0.00
2023-03-28T00:26:26.382Z,0.00
2023-03-28T00:27:26.429Z,0.00
2023-03-28T00:28:26.370Z,0.00
2023-03-28T00:29:26.380Z,0.00
2023-03-28T00:30:26.348Z,0.00
2023-03-28T00:31:26.389Z,0.00
2023-03-28T00:32:26.368Z,0.00
2023-03-28T00:33:26.316Z,0.00
2023-03-28T00:34:26.332Z,0.00
2023-03-28T00:35:26.308Z,0.00
2023-03-28T00:36:26.313Z,0.00
2023-03-28T00:37:26.272Z,0.00
2023-03-28T00:38:26.262Z,0.00
2023-03-28T00:39:26.281Z,0.00
2023-03-28T00:40:26.233Z,0.00
2023-03-28T00:41:26.231Z,0.00
2023-03-28T00:42:26.225Z,0.00
2023-03-28T00:43:26.198Z,0.00
2023-03-28T00:44:26.205Z,0.00
2023-03-28T00:45:26.222Z,0.00
2023-03-28T00:46:26.280Z,0.00
2023-03-28T00:47:26.217Z,0.00
2023-03-28T00:48:26.189Z,0.00
2023-03-28T00:49:26.164Z,0.00
2023-03-28T00:50:26.162Z,0.00
2023-03-28T00:51:26.147Z,0.00
2023-03-28T00:52:26.104Z,0.00
2023-03-28T00:53:26.102Z,0.00
2023-03-28T00:54:26.094Z,0.00
2023-03-28T00:55:26.114Z,0.00
2023-03-28T00:56:26.223Z,0.00
2023-03-28T00:57:26.056Z,0.00
2023-03-28T00:58:26.055Z,0.00
2023-03-28T00:59:26.034Z,0.00
2023-03-28T01:00:26.037Z,0.00
2023-03-28T01:01:26.069Z,0.00
2023-03-28T01:02:26.111Z,0.00
2023-03-28T01:03:26.059Z,0.00
2023-03-28T01:04:25.999Z,0.00
2023-03-28T01:05:25.979Z,0.00
2023-03-28T01:06:25.956Z,0.00
2023-03-28T01:07:25.979Z,0.00
2023-03-28T01:08:25.939Z,0.00
2023-03-28T01:09:25.925Z,0.00
2023-03-28T01:10:25.921Z,0.00
2023-03-28T01:11:25.912Z,0.00
2023-03-28T01:12:25.923Z,0.00
2023-03-28T01:13:25.882Z,0.00
2023-03-28T01:14:25.869Z,0.00
2023-03-28T01:15:25.910Z,0.00
2023-03-28T01:16:25.908Z,0.00
2023-03-28T01:17:25.905Z,0.00
2023-03-28T01:18:25.869Z,0.00
2023-03-28T01:19:25.826Z,0.00
2023-03-28T01:20:25.833Z,0.00
2023-03-28T01:21:25.796Z,0.00
2023-03-28T01:22:25.792Z,0.00
2023-03-28T01:23:25.782Z,0.00
2023-03-28T01:24:25.791Z,0.00
2023-03-28T01:25:25.759Z,0.00
2023-03-28T01:26:25.747Z,0.00
2023-03-28T01:27:25.733Z,0.00
2023-03-28T01:28:25.742Z,0.00
2023-03-28T01:29:25.745Z,0.00
2023-03-28T01:30:25.697Z,0.00
2023-03-28T01:31:25.710Z,0.00
2023-03-28T01:32:25.711Z,0.00
2023-03-28T01:33:25.671Z,0.00
2023-03-28T01:34:25.657Z,0.00
2023-03-28T01:35:25.838Z,0.00
2023-03-28T01:36:33.536Z,0.00
2023-03-28T01:37:26.631Z,0.00
2023-03-28T01:38:25.612Z,0.00
2023-03-28T01:39:25.600Z,0.00
2023-03-28T01:40:25.641Z,0.00
2023-03-28T01:41:25.580Z,0.00
2023-03-28T01:42:25.569Z,0.00
2023-03-28T01:43:25.570Z,0.00
2023-03-28T01:44:25.556Z,0.00
2023-03-28T01:45:25.567Z,0.00
2023-03-28T01:46:25.620Z,0.00
2023-03-28T01:47:25.536Z,0.00
2023-03-28T01:48:25.503Z,0.00
2023-03-28T01:49:25.529Z,0.00
2023-03-28T01:50:25.494Z,0.00
2023-03-28T01:51:25.474Z,0.00
2023-03-28T01:52:25.497Z,0.00
2023-03-28T01:53:25.496Z,0.00
2023-03-28T01:54:25.450Z,0.00
2023-03-28T01:55:25.444Z,0.00
2023-03-28T01:56:25.433Z,0.00
2023-03-28T01:57:25.551Z,0.00
2023-03-28T01:58:25.401Z,0.00
2023-03-28T01:59:25.389Z,0.00
2023-03-28T02:00:25.390Z,0.00
2023-03-28T02:01:25.423Z,0.00
2023-03-28T02:02:25.474Z,0.00
2023-03-28T02:03:25.475Z,0.00
2023-03-28T02:04:26.170Z,0.00
2023-03-28T02:05:25.363Z,0.00
2023-03-28T02:06:25.313Z,0.00
2023-03-28T02:07:25.314Z,0.00
2023-03-28T02:08:25.328Z,0.00
2023-03-28T02:09:25.364Z,0.00
2023-03-28T02:10:25.340Z,0.00
2023-03-28T02:11:25.271Z,0.00
2023-03-28T02:12:25.289Z,0.00
2023-03-28T02:13:26.399Z,0.00
2023-03-28T02:14:26.144Z,0.00
2023-03-28T02:15:25.416Z,0.00
2023-03-28T02:16:26.421Z,0.00
2023-03-28T02:17:26.626Z,0.00
2023-03-28T02:18:25.205Z,0.00
2023-03-28T02:19:25.236Z,0.00
2023-03-28T02:20:25.169Z,0.00
2023-03-28T02:21:25.166Z,0.00
2023-03-28T02:22:25.163Z,0.00
2023-03-28T02:23:25.151Z,0.00
2023-03-28T02:24:25.172Z,0.00
2023-03-28T02:25:25.155Z,0.00
2023-03-28T02:26:25.113Z,0.00
2023-03-28T02:27:25.107Z,0.00
2023-03-28T02:28:25.096Z,0.00
2023-03-28T02:29:25.118Z,0.00
2023-03-28T02:30:25.074Z,0.00
2023-03-28T02:31:25.081Z,0.00
2023-03-28T02:32:25.123Z,0.00
2023-03-28T02:33:25.072Z,0.00
2023-03-28T02:34:25.281Z,0.00
2023-03-28T02:35:25.077Z,0.00
2023-03-28T02:36:25.015Z,0.00
2023-03-28T02:37:25.010Z,0.00
2023-03-28T02:38:25.001Z,0.00
2023-03-28T02:39:24.978Z,0.00
2023-03-28T02:40:25.038Z,0.00
2023-03-28T02:41:24.999Z,0.00
2023-03-28T02:42:24.953Z,0.00
2023-03-28T02:43:24.945Z,0.00
2023-03-28T02:44:27.109Z,0.00
2023-03-28T02:45:24.917Z,0.00
2023-03-28T02:46:24.982Z,0.00
2023-03-28T02:47:24.895Z,0.00
2023-03-28T02:48:24.884Z,0.00
2023-03-28T02:49:24.874Z,0.00
2023-03-28T02:50:24.869Z,0.00
2023-03-28T02:51:24.901Z,0.00
2023-03-28T02:52:24.882Z,0.00
2023-03-28T02:53:24.861Z,0.00
2023-03-28T02:54:24.831Z,0.00
2023-03-28T02:55:24.810Z,0.00
2023-03-28T02:56:24.862Z,0.00
2023-03-28T02:57:24.801Z,0.00
2023-03-28T02:58:24.783Z,0.00
2023-03-28T02:59:24.762Z,0.00
2023-03-28T03:00:24.766Z,0.00
2023-03-28T03:01:24.868Z,0.00
2023-03-28T03:02:24.803Z,0.00
2023-03-28T03:03:24.762Z,0.00
2023-03-28T03:04:24.723Z,0.00
2023-03-28T03:05:24.713Z,0.00
2023-03-28T03:06:24.702Z,0.00
2023-03-28T03:07:24.683Z,0.00
2023-03-28T03:08:24.697Z,0.00
2023-03-28T03:09:24.661Z,0.00
2023-03-28T03:10:24.656Z,0.00
2023-03-28T03:11:24.651Z,0.00
2023-03-28T03:12:24.674Z,0.00
2023-03-28T03:13:24.626Z,0.00
2023-03-28T03:14:24.614Z,0.00
2023-03-28T03:15:24.593Z,0.00
2023-03-28T03:16:24.687Z,0.00
2023-03-28T03:17:24.995Z,0.00
2023-03-28T03:18:24.595Z,0.00
2023-03-28T03:19:24.554Z,0.00
2023-03-28T03:20:24.569Z,0.00
2023-03-28T03:21:24.539Z,0.00
2023-03-28T03:22:24.530Z,0.00
2023-03-28T03:23:24.531Z,0.00
2023-03-28T03:24:24.511Z,0.00
2023-03-28T03:25:24.501Z,0.00
2023-03-28T03:26:24.536Z,0.00
2023-03-28T03:27:24.467Z,0.00
2023-03-28T03:28:24.480Z,0.00
2023-03-28T03:29:24.447Z,0.00
2023-03-28T03:30:24.627Z,0.00
2023-03-28T03:31:24.481Z,0.00
2023-03-28T03:32:24.475Z,0.00
2023-03-28T03:33:24.407Z,0.00
2023-03-28T03:34:24.425Z,0.00
2023-03-28T03:35:24.411Z,0.00
2023-03-28T03:36:24.410Z,0.00
2023-03-28T03:37:24.360Z,0.00
2023-03-28T03:38:24.358Z,0.00
2023-03-28T03:39:24.341Z,0.00
2023-03-28T03:40:24.373Z,0.00
2023-03-28T03:41:24.341Z,0.00
2023-03-28T03:42:24.313Z,0.00
2023-03-28T03:43:24.307Z,0.00
2023-03-28T03:44:24.322Z,0.00
2023-03-28T03:45:24.284Z,0.00
2023-03-28T03:46:24.342Z,0.00
2023-03-28T03:47:24.331Z,0.00
2023-03-28T03:48:24.255Z,0.00
2023-03-28T03:49:24.235Z,0.00
2023-03-28T03:50:24.242Z,0.00
2023-03-28T03:51:24.243Z,0.00
2023-03-28T03:52:24.207Z,0.00
2023-03-28T03:53:24.197Z,0.00
2023-03-28T03:54:24.191Z,0.00
2023-03-28T03:55:24.237Z,0.00
2023-03-28T03:56:24.161Z,0.00
2023-03-28T03:57:24.235Z,0.00
2023-03-28T03:58:24.141Z,0.00
2023-03-28T03:59:24.149Z,0.00
2023-03-28T04:00:24.723Z,0.00
2023-03-28T04:01:24.117Z,0.00
2023-03-28T04:02:24.191Z,0.00
2023-03-28T04:03:25.605Z,0.00
2023-03-28T04:04:24.171Z,0.00
2023-03-28T04:05:24.065Z,0.00
2023-03-28T04:06:24.062Z,0.00
2023-03-28T04:07:24.044Z,0.00
2023-03-28T04:08:24.070Z,0.00
2023-03-28T04:09:24.071Z,0.00
2023-03-28T04:10:24.013Z,0.00
2023-03-28T04:11:24.004Z,0.00
2023-03-28T04:12:23.989Z,0.00
2023-03-28T04:13:23.980Z,0.00
2023-03-28T04:14:23.969Z,0.00
2023-03-28T04:15:23.997Z,0.00
2023-03-28T04:16:24.072Z,0.00
2023-03-28T04:17:24.081Z,0.00
2023-03-28T04:18:23.932Z,0.00
2023-03-28T04:19:23.951Z,0.00
2023-03-28T04:20:23.952Z,0.00
2023-03-28T04:21:23.901Z,0.00
2023-03-28T04:22:23.921Z,0.00
2023-03-28T04:23:23.877Z,0.00
2023-03-28T04:24:23.895Z,4.00
2023-03-28T04:25:23.888Z,4.00
2023-03-28T04:26:23.844Z,0.00
2023-03-28T04:27:23.827Z,4.00
2023-03-28T04:28:23.818Z,4.00
2023-03-28T04:29:23.822Z,4.00
2023-03-28T04:30:23.896Z,8.00
2023-03-28T04:31:23.846Z,4.00
2023-03-28T04:32:23.798Z,8.00
2023-03-28T04:33:24.008Z,8.00
2023-03-28T04:34:23.767Z,8.00
2023-03-28T04:35:23.800Z,12.00
2023-03-28T04:36:23.783Z,12.00
2023-03-28T04:37:23.735Z,12.00
2023-03-28T04:38:23.716Z,16.00
2023-03-28T04:39:23.706Z,16.00
2023-03-28T04:40:24.992Z,20.00
2023-03-28T04:41:23.719Z,24.00
2023-03-28T04:42:23.717Z,28.00
2023-03-28T04:43:23.676Z,32.00
2023-03-28T04:44:23.690Z,36.00
2023-03-28T04:45:23.643Z,40.00
2023-03-28T04:46:23.843Z,44.00
2023-03-28T04:47:23.675Z,56.00
2023-03-28T04:48:23.679Z,60.00
2023-03-28T04:49:23.612Z,68.00
2023-03-28T04:50:23.620Z,72.00
2023-03-28T04:51:23.623Z,72.00
2023-03-28T04:52:23.617Z,76.00
2023-03-28T04:53:23.571Z,80.00
2023-03-28T04:54:23.596Z,92.00
2023-03-28T04:55:23.542Z,100.00
2023-03-28T04:56:23.538Z,112.00
2023-03-28T04:57:23.553Z,128.00
2023-03-28T04:58:23.552Z,144.00
2023-03-28T04:59:23.514Z,144.00
2023-03-28T05:00:23.495Z,148.00
2023-03-28T05:01:23.529Z,156.00
2023-03-28T05:02:23.600Z,164.00
2023-03-28T05:03:23.619Z,176.00
2023-03-28T05:04:23.471Z,188.00
2023-03-28T05:05:23.441Z,204.00
2023-03-28T05:06:23.431Z,216.00
2023-03-28T05:07:23.444Z,232.00
2023-03-28T05:08:23.429Z,244.00
2023-03-28T05:09:23.427Z,264.00
2023-03-28T05:10:23.379Z,280.00
2023-03-28T05:11:23.365Z,296.00
2023-03-28T05:12:23.367Z,312.00
2023-03-28T05:13:23.424Z,356.00
2023-03-28T05:14:23.368Z,364.00
2023-03-28T05:15:23.560Z,364.00
2023-03-28T05:16:23.372Z,372.00
2023-03-28T05:17:23.331Z,408.00
2023-03-28T05:18:23.331Z,496.00
2023-03-28T05:19:23.310Z,460.00
2023-03-28T05:20:23.326Z,412.00
2023-03-28T05:21:23.296Z,324.00
2023-03-28T05:22:23.253Z,260.00
2023-03-28T05:23:23.267Z,252.00
2023-03-28T05:24:23.242Z,272.00
2023-03-28T05:25:23.249Z,284.00
2023-03-28T05:26:23.221Z,308.00
2023-03-28T05:27:23.205Z,424.00
2023-03-28T05:28:23.218Z,568.00
2023-03-28T05:29:23.221Z,780.00
2023-03-28T05:30:23.225Z,928.00
2023-03-28T05:31:23.190Z,892.00
2023-03-28T05:32:23.374Z,768.00
2023-03-28T05:33:23.128Z,664.00
2023-03-28T05:34:23.116Z,636.00
2023-03-28T05:35:23.141Z,720.00
2023-03-28T05:36:23.143Z,812.00
2023-03-28T05:37:23.104Z,892.00
2023-03-28T05:38:24.082Z,1144.00
2023-03-28T05:39:23.080Z,1208.00
2023-03-28T05:40:23.093Z,1120.00
2023-03-28T05:41:23.058Z,1036.00
2023-03-28T05:42:23.083Z,1040.00
2023-03-28T05:43:23.037Z,1140.00
2023-03-28T05:44:23.022Z,1464.00
2023-03-28T05:45:23.012Z,1572.00
2023-03-28T05:46:23.144Z,1472.00
2023-03-28T05:47:23.159Z,1416.00
2023-03-28T05:48:22.991Z,1472.00
2023-03-28T05:49:22.969Z,1492.00
2023-03-28T05:50:22.955Z,1600.00
2023-03-28T05:51:22.960Z,1572.00
2023-03-28T05:52:23.027Z,1456.00
2023-03-28T05:53:22.957Z,1316.00
2023-03-28T05:54:22.919Z,996.00
2023-03-28T05:55:22.912Z,964.00
2023-03-28T05:56:22.902Z,988.00
2023-03-28T05:57:23.867Z,1008.00
2023-03-28T05:58:22.971Z,1024.00
2023-03-28T05:59:23.748Z,1024.00
2023-03-28T06:00:22.871Z,1052.00
2023-03-28T06:01:22.848Z,1064.00
2023-03-28T06:02:22.866Z,1068.00
2023-03-28T06:03:22.963Z,1148.00
2023-03-28T06:04:22.959Z,1196.00
2023-03-28T06:05:22.818Z,1096.00
2023-03-28T06:06:22.887Z,1136.00
2023-03-28T06:07:35.138Z,1148.00
2023-03-28T06:08:23.807Z,1164.00
2023-03-28T06:09:22.787Z,1172.00
2023-03-28T06:10:22.765Z,1188.00
2023-03-28T06:11:22.736Z,1192.00
2023-03-28T06:12:22.725Z,1204.00
2023-03-28T06:13:22.719Z,1232.00
2023-03-28T06:14:22.704Z,1252.00
2023-03-28T06:15:22.744Z,1248.00
2023-03-28T06:16:30.214Z,1264.00
2023-03-28T06:17:23.672Z,1292.00
2023-03-28T06:18:22.676Z,1312.00
2023-03-28T06:19:22.773Z,1336.00
2023-03-28T06:20:22.684Z,1428.00
2023-03-28T06:21:22.734Z,1392.00
2023-03-28T06:22:22.620Z,1412.00
2023-03-28T06:23:22.603Z,1408.00
2023-03-28T06:24:22.627Z,1468.00
2023-03-28T06:25:22.627Z,1500.00
2023-03-28T06:26:22.585Z,1524.00
2023-03-28T06:27:22.572Z,1552.00
2023-03-28T06:28:22.609Z,1584.00
2023-03-28T06:29:22.542Z,1588.00
2023-03-28T06:30:22.543Z,1608.00
2023-03-28T06:31:22.709Z,1636.00
2023-03-28T06:32:22.606Z,1660.00
2023-03-28T06:33:22.514Z,1684.00
2023-03-28T06:34:22.500Z,1712.00
2023-03-28T06:35:22.489Z,1740.00
2023-03-28T06:36:22.565Z,1764.00
2023-03-28T06:37:22.490Z,1804.00
2023-03-28T06:38:22.477Z,1824.00
2023-03-28T06:39:22.438Z,1844.00
2023-03-28T06:40:22.506Z,1872.00
2023-03-28T06:41:22.487Z,1900.00
2023-03-28T06:42:22.425Z,1940.00
2023-03-28T06:43:22.457Z,1968.00
2023-03-28T06:44:22.394Z,1992.00
2023-03-28T06:45:22.389Z,2000.00
2023-03-28T06:46:22.376Z,2040.00
2023-03-28T06:47:22.573Z,2076.00
2023-03-28T06:48:22.350Z,2092.00
2023-03-28T06:49:22.390Z,2116.00
2023-03-28T06:50:22.329Z,2144.00
2023-03-28T06:51:22.335Z,2172.00
2023-03-28T06:52:22.331Z,2248.00
2023-03-28T06:53:22.290Z,2240.00
2023-03-28T06:54:22.284Z,2264.00
2023-03-28T06:55:22.343Z,2296.00
2023-03-28T06:56:22.287Z,2332.00
2023-03-28T06:57:22.424Z,2356.00
2023-03-28T06:58:22.287Z,2388.00
2023-03-28T06:59:22.294Z,2428.00
2023-03-28T07:00:22.217Z,2468.00
2023-03-28T07:01:22.223Z,2516.00
2023-03-28T07:02:22.257Z,2548.00
2023-03-28T07:03:22.294Z,2576.00
2023-03-28T07:04:22.187Z,2600.00
2023-03-28T07:05:22.185Z,2636.00
2023-03-28T07:06:22.154Z,2680.00
2023-03-28T07:07:22.144Z,2716.00
2023-03-28T07:08:22.173Z,2740.00
2023-03-28T07:09:22.161Z,2768.00
2023-03-28T07:10:22.124Z,2816.00
2023-03-28T07:11:22.100Z,2856.00
2023-03-28T07:12:22.136Z,2892.00
2023-03-28T07:13:22.079Z,2928.00
2023-03-28T07:14:22.106Z,2972.00
2023-03-28T07:15:22.057Z,3000.00
2023-03-28T07:16:22.092Z,3048.00
2023-03-28T07:17:22.048Z,3084.00
2023-03-28T07:18:22.024Z,3112.00
2023-03-28T07:19:22.025Z,3152.00
2023-03-28T07:20:22.041Z,3196.00
2023-03-28T07:21:22.010Z,3232.00
2023-03-28T07:22:21.994Z,3264.00
2023-03-28T07:23:21.983Z,3300.00
2023-03-28T07:24:21.977Z,3356.00
2023-03-28T07:25:21.984Z,3420.00
2023-03-28T07:26:21.945Z,3476.00
2023-03-28T07:27:22.869Z,3512.00
2023-03-28T07:28:21.941Z,3560.00
2023-03-28T07:29:21.914Z,3604.00
2023-03-28T07:30:21.938Z,3644.00
2023-03-28T07:31:21.937Z,3716.00
2023-03-28T07:32:21.893Z,3748.00
2023-03-28T07:33:30.885Z,3816.00
2023-03-28T07:34:22.965Z,3868.00
2023-03-28T07:35:21.883Z,3932.00
2023-03-28T07:36:21.880Z,3968.00
2023-03-28T07:37:21.826Z,4024.00
2023-03-28T07:38:21.822Z,4072.00
2023-03-28T07:39:21.807Z,4136.00
2023-03-28T07:40:21.846Z,4156.00
2023-03-28T07:41:21.819Z,4200.00
2023-03-28T07:42:21.793Z,4228.00
2023-03-28T07:43:21.772Z,4276.00
2023-03-28T07:44:21.830Z,4332.00
2023-03-28T07:45:21.745Z,4356.00
2023-03-28T07:46:21.737Z,4412.00
2023-03-28T07:47:21.741Z,4444.00
2023-03-28T07:48:21.744Z,4488.00
2023-03-28T07:49:21.699Z,4536.00
2023-03-28T07:50:24.315Z,4600.00
2023-03-28T07:51:21.689Z,4656.00
2023-03-28T07:52:21.683Z,4720.00
2023-03-28T07:53:21.697Z,4748.00
2023-03-28T07:54:21.651Z,4812.00
2023-03-28T07:55:21.630Z,4872.00
2023-03-28T07:56:21.632Z,4908.00
2023-03-28T07:57:21.634Z,4976.00
2023-03-28T07:58:21.607Z,5032.00
2023-03-28T07:59:21.629Z,5072.00
2023-03-28T08:00:21.604Z,5144.00
2023-03-28T08:01:21.578Z,5220.00
2023-03-28T08:02:21.596Z,5256.00
2023-03-28T08:03:21.681Z,5336.00
2023-03-28T08:04:21.536Z,5396.00
2023-03-28T08:05:21.604Z,5464.00
2023-03-28T08:06:31.593Z,5532.00
2023-03-28T08:07:22.501Z,5584.00
2023-03-28T08:08:21.536Z,5680.00
2023-03-28T08:09:21.482Z,5744.00
2023-03-28T08:10:21.500Z,5776.00
2023-03-28T08:11:21.457Z,5860.00
2023-03-28T08:12:21.453Z,5924.00
2023-03-28T08:13:21.498Z,5992.00
2023-03-28T08:14:21.440Z,6044.00
2023-03-28T08:15:21.430Z,6116.00
2023-03-28T08:16:21.505Z,6188.00
2023-03-28T08:17:21.443Z,6272.00
2023-03-28T08:18:21.383Z,6308.00
2023-03-28T08:19:21.380Z,6396.00
2023-03-28T08:20:21.382Z,6444.00
2023-03-28T08:21:21.387Z,6560.00
2023-03-28T08:22:21.344Z,6628.00
2023-03-28T08:23:21.338Z,6700.00
2023-03-28T08:24:33.045Z,6796.00
2023-03-28T08:25:22.318Z,6864.00
2023-03-28T08:26:21.335Z,6948.00
2023-03-28T08:27:21.328Z,7020.00
2023-03-28T08:28:21.276Z,7084.00
2023-03-28T08:29:21.267Z,7176.00
2023-03-28T08:30:21.274Z,7248.00
2023-03-28T08:31:21.315Z,7276.00
2023-03-28T08:32:21.259Z,7388.00
2023-03-28T08:33:21.228Z,7492.00
2023-03-28T08:34:21.220Z,7596.00
2023-03-28T08:35:21.212Z,7716.00
2023-03-28T08:36:21.196Z,7800.00
2023-03-28T08:37:21.214Z,7984.00
2023-03-28T08:38:21.178Z,8116.00
2023-03-28T08:39:21.166Z,8276.00
2023-03-28T08:40:21.199Z,8444.00
2023-03-28T08:41:21.150Z,8620.00
2023-03-28T08:42:21.158Z,8804.00
2023-03-28T08:43:21.145Z,9056.00
2023-03-28T08:44:21.134Z,9312.00
2023-03-28T08:45:21.099Z,9656.00
2023-03-28T08:46:21.120Z,10116.00
2023-03-28T08:47:21.141Z,10448.00
2023-03-28T08:48:21.089Z,10900.00
2023-03-28T08:49:21.121Z,11580.00
2023-03-28T08:50:21.125Z,13480.00
2023-03-28T08:51:21.035Z,14508.00
2023-03-28T08:52:21.024Z,14432.00
2023-03-28T08:53:21.039Z,16288.00
2023-03-28T08:54:21.000Z,18016.00
2023-03-28T08:55:20.988Z,5148.00
2023-03-28T08:56:20.982Z,21344.00
2023-03-28T08:57:21.384Z,27488.00
2023-03-28T08:58:20.965Z,45376.00
2023-03-28T08:59:20.943Z,61088.00
2023-03-28T09:00:20.983Z,19328.00
2023-03-28T09:01:21.016Z,67200.00
2023-03-28T09:02:21.028Z,51680.00
2023-03-28T09:03:20.995Z,12788.00
2023-03-28T09:04:20.977Z,33952.00
2023-03-28T09:05:23.757Z,15328.00
2023-03-28T09:06:20.870Z,10648.00
2023-03-28T09:07:20.886Z,7448.00
2023-03-28T09:08:20.892Z,7168.00
2023-03-28T09:09:20.871Z,10532.00
2023-03-28T09:10:20.837Z,9492.00
2023-03-28T09:11:20.824Z,5704.00
2023-03-28T09:12:20.803Z,8812.00
2023-03-28T09:13:20.870Z,7724.00
2023-03-28T09:14:20.821Z,5804.00
2023-03-28T09:15:20.779Z,4852.00
2023-03-28T09:16:20.798Z,4064.00
2023-03-28T09:17:20.783Z,3236.00
2023-03-28T09:18:20.736Z,3080.00
2023-03-28T09:19:20.781Z,2400.00
2023-03-28T09:20:20.749Z,2912.00
2023-03-28T09:21:20.720Z,4380.00
2023-03-28T09:22:20.725Z,4008.00
2023-03-28T09:23:20.705Z,2988.00
2023-03-28T09:24:20.678Z,3788.00
2023-03-28T09:25:20.697Z,4704.00
2023-03-28T09:26:20.658Z,4560.00
2023-03-28T09:27:20.643Z,3472.00
2023-03-28T09:28:20.738Z,3036.00
2023-03-28T09:29:20.626Z,2992.00
2023-03-28T09:30:20.684Z,4668.00
2023-03-28T09:31:20.693Z,18272.00
2023-03-28T09:32:20.687Z,42240.00
2023-03-28T09:33:20.620Z,4688.00
2023-03-28T09:34:20.566Z,5004.00
2023-03-28T09:35:20.551Z,6616.00
2023-03-28T09:36:20.633Z,11752.00
2023-03-28T09:37:20.542Z,7456.00
2023-03-28T09:38:20.533Z,67168.00
2023-03-28T09:39:20.509Z,52928.00
2023-03-28T09:40:20.503Z,8748.00
2023-03-28T09:41:20.489Z,6056.00
2023-03-28T09:42:20.522Z,5208.00
2023-03-28T09:43:20.492Z,5512.00
2023-03-28T09:44:20.463Z,4736.00
2023-03-28T09:45:20.460Z,4424.00
2023-03-28T09:46:20.491Z,6872.00
2023-03-28T09:47:20.433Z,85216.00
2023-03-28T09:48:20.543Z,85280.00
2023-03-28T09:49:20.413Z,6376.00
2023-03-28T09:50:20.429Z,4684.00
2023-03-28T09:51:20.381Z,3252.00
2023-03-28T09:52:20.395Z,5412.00
2023-03-28T09:53:20.395Z,5532.00
2023-03-28T09:54:20.356Z,7160.00
2023-03-28T09:55:20.397Z,6800.00
2023-03-28T09:56:20.332Z,90080.00
2023-03-28T09:57:20.397Z,94112.00
2023-03-28T09:58:20.334Z,41664.00
2023-03-28T09:59:20.301Z,91296.00
2023-03-28T10:00:20.286Z,87584.00
2023-03-28T10:01:20.332Z,80256.00
2023-03-28T10:02:20.261Z,14044.00
2023-03-28T10:03:20.296Z,11052.00
2023-03-28T10:04:20.255Z,11464.00
2023-03-28T10:05:20.248Z,15164.00
2023-03-28T10:06:20.228Z,11856.00
2023-03-28T10:07:20.213Z,77408.00
2023-03-28T10:08:20.222Z,12672.00
2023-03-28T10:09:20.240Z,4432.00
2023-03-28T10:10:20.180Z,4204.00
2023-03-28T10:11:20.178Z,4452.00
2023-03-28T10:12:20.166Z,5768.00
2023-03-28T10:13:20.139Z,12380.00
2023-03-28T10:14:20.175Z,8812.00
2023-03-28T10:15:20.128Z,7724.00
2023-03-28T10:16:20.186Z,7808.00
2023-03-28T10:17:20.102Z,6356.00
2023-03-28T10:18:20.098Z,4460.00
2023-03-28T10:19:20.086Z,3472.00
2023-03-28T10:20:20.105Z,3580.00
2023-03-28T10:21:20.067Z,5344.00
2023-03-28T10:22:20.045Z,6632.00
2023-03-28T10:23:20.043Z,65760.00
2023-03-28T10:24:20.064Z,63744.00
2023-03-28T10:25:20.040Z,64928.00
2023-03-28T10:26:20.010Z,36384.00
2023-03-28T10:27:20.017Z,25120.00
2023-03-28T10:28:20.016Z,7124.00
2023-03-28T10:29:19.969Z,7552.00
2023-03-28T10:30:20.003Z,23040.00
2023-03-28T10:31:19.977Z,22048.00
2023-03-28T10:32:19.947Z,20128.00
2023-03-28T10:33:19.969Z,19744.00
2023-03-28T10:34:19.923Z,19648.00
2023-03-28T10:35:21.391Z,19808.00
2023-03-28T10:36:20.014Z,19008.00
2023-03-28T10:37:19.889Z,17440.00
2023-03-28T10:38:19.882Z,18528.00
2023-03-28T10:39:19.876Z,17728.00
2023-03-28T10:40:20.050Z,9496.00
2023-03-28T10:41:19.865Z,15328.00
2023-03-28T10:42:19.873Z,16480.00
2023-03-28T10:43:19.820Z,16032.00
2023-03-28T10:44:19.810Z,16096.00
2023-03-28T10:45:19.804Z,13108.00
2023-03-28T10:46:19.873Z,7828.00
2023-03-28T10:47:19.795Z,5984.00
2023-03-28T10:48:19.776Z,6584.00
2023-03-28T10:49:19.766Z,5708.00
2023-03-28T10:50:19.753Z,11164.00
2023-03-28T10:51:19.735Z,5532.00
2023-03-28T10:52:19.761Z,4084.00
2023-03-28T10:53:19.712Z,4136.00
2023-03-28T10:54:19.705Z,5908.00
2023-03-28T10:55:19.724Z,8724.00
2023-03-28T10:56:19.705Z,8328.00
2023-03-28T10:57:19.696Z,8144.00
2023-03-28T10:58:19.708Z,8044.00
2023-03-28T10:59:19.660Z,10368.00
2023-03-28T11:00:19.651Z,10980.00
2023-03-28T11:01:19.680Z,10192.00
2023-03-28T11:02:19.675Z,8852.00
2023-03-28T11:03:19.712Z,8220.00
2023-03-28T11:04:19.592Z,8684.00
2023-03-28T11:05:19.592Z,8632.00
2023-03-28T11:06:19.579Z,10804.00
2023-03-28T11:07:19.598Z,11872.00
2023-03-28T11:08:19.554Z,11420.00
2023-03-28T11:09:19.568Z,9404.00
2023-03-28T11:10:19.535Z,7328.00
2023-03-28T11:11:19.524Z,7452.00
2023-03-28T11:12:27.888Z,5256.00
2023-03-28T11:13:20.515Z,8536.00
2023-03-28T11:14:19.514Z,8324.00
2023-03-28T11:15:19.481Z,3236.00
2023-03-28T11:16:19.518Z,6428.00
2023-03-28T11:17:19.482Z,8768.00
2023-03-28T11:18:19.484Z,4740.00
2023-03-28T11:19:19.440Z,6620.00
2023-03-28T11:20:19.429Z,8144.00
2023-03-28T11:21:19.417Z,9720.00
2023-03-28T11:22:19.408Z,9320.00
2023-03-28T11:23:19.396Z,10376.00
2023-03-28T11:24:19.407Z,11404.00
2023-03-28T11:25:19.379Z,10328.00
2023-03-28T11:26:19.388Z,10520.00
2023-03-28T11:27:19.360Z,7372.00
2023-03-28T11:28:19.352Z,9564.00
2023-03-28T11:29:19.365Z,9436.00
2023-03-28T11:30:19.319Z,9892.00
2023-03-28T11:31:19.335Z,8860.00
2023-03-28T11:32:19.365Z,5788.00
2023-03-28T11:33:19.290Z,4360.00
2023-03-28T11:34:19.312Z,5144.00
2023-03-28T11:35:19.297Z,6252.00
2023-03-28T11:36:19.254Z,6188.00
2023-03-28T11:37:19.242Z,5412.00
2023-03-28T11:38:19.229Z,4684.00
2023-03-28T11:39:19.312Z,3712.00
2023-03-28T11:40:19.230Z,3512.00
2023-03-28T11:41:19.193Z,3364.00
2023-03-28T11:42:19.188Z,4044.00
2023-03-28T11:43:19.174Z,6512.00
2023-03-28T11:44:19.186Z,3652.00
2023-03-28T11:45:19.195Z,3692.00
2023-03-28T11:46:19.219Z,3164.00
2023-03-28T11:47:19.133Z,3644.00
2023-03-28T11:48:19.131Z,2752.00
2023-03-28T11:49:19.116Z,2872.00
2023-03-28T11:50:19.345Z,4072.00
2023-03-28T11:51:19.111Z,8256.00
2023-03-28T11:52:19.083Z,7296.00
2023-03-28T11:53:19.061Z,6456.00
2023-03-28T11:54:19.045Z,6184.00
2023-03-28T11:55:19.047Z,6560.00
2023-03-28T11:56:19.085Z,5916.00
2023-03-28T11:57:19.086Z,5392.00
2023-03-28T11:58:19.041Z,5224.00
2023-03-28T11:59:19.004Z,5412.00
2023-03-28T12:00:32.716Z,5692.00
2023-03-28T12:01:20.068Z,6512.00
2023-03-28T12:02:19.012Z,6448.00
2023-03-28T12:03:19.056Z,5848.00
2023-03-28T12:04:18.981Z,5520.00
2023-03-28T12:05:18.939Z,5400.00
2023-03-28T12:06:18.944Z,5408.00
2023-03-28T12:07:18.947Z,5664.00
2023-03-28T12:08:18.908Z,6208.00
2023-03-28T12:09:18.895Z,7024.00
2023-03-28T12:10:18.896Z,5508.00
2023-03-28T12:11:18.870Z,2736.00
2023-03-28T12:12:18.860Z,2256.00
2023-03-28T12:13:19.396Z,3004.00
2023-03-28T12:14:18.836Z,2264.00
2023-03-28T12:15:18.825Z,4776.00
2023-03-28T12:16:18.890Z,4992.00
2023-03-28T12:17:18.816Z,5060.00
2023-03-28T12:18:18.831Z,5200.00
2023-03-28T12:19:18.818Z,4980.00
2023-03-28T12:20:21.244Z,2748.00
2023-03-28T12:21:18.771Z,5684.00
2023-03-28T12:22:18.744Z,5524.00
2023-03-28T12:23:18.745Z,2732.00
2023-03-28T12:24:18.772Z,3684.00
2023-03-28T12:25:18.719Z,5320.00
2023-03-28T12:26:18.711Z,5564.00
2023-03-28T12:27:18.788Z,6488.00
2023-03-28T12:28:18.688Z,7264.00
2023-03-28T12:29:18.712Z,8016.00
2023-03-28T12:30:18.664Z,7760.00
2023-03-28T12:31:18.686Z,6952.00